createdAt,value
2022-10-20T00:00:00.432Z,1014.53
2022-10-20T00:01:00.968Z,1014.52
2022-10-20T00:02:01.248Z,1014.56
2022-10-20T00:03:01.067Z,1014.55
2022-10-20T00:04:19.848Z,1014.55
2022-10-20T00:05:01.038Z,1014.57
2022-10-20T00:06:00.568Z,1014.55
2022-10-20T00:07:00.668Z,1014.53
2022-10-20T00:08:00.943Z,1014.55
2022-10-20T00:09:01.362Z,1014.55
2022-10-20T00:10:00.368Z,1014.54
2022-10-20T00:11:00.791Z,1014.55
2022-10-20T00:11:59.699Z,1014.54
2022-10-20T00:12:59.449Z,1014.55
2022-10-20T00:14:19.671Z,1014.55
2022-10-20T00:15:00.942Z,1014.55
2022-10-20T00:16:00.377Z,1014.58
2022-10-20T00:17:00.517Z,1014.52
2022-10-20T00:18:00.029Z,1014.57
2022-10-20T00:19:00.562Z,1014.52
2022-10-20T00:20:00.370Z,1014.51
2022-10-20T00:21:00.373Z,1014.52
2022-10-20T00:21:59.569Z,1014.47
2022-10-20T00:23:00.777Z,1014.46
2022-10-20T00:24:19.602Z,1014.44
2022-10-20T00:25:00.813Z,1014.44
2022-10-20T00:26:01.103Z,1014.42
2022-10-20T00:26:59.862Z,1014.39
2022-10-20T00:27:59.880Z,1014.39
2022-10-20T00:28:59.553Z,1014.37
2022-10-20T00:30:00.726Z,1014.32
2022-10-20T00:31:01.054Z,1014.35
2022-10-20T00:31:59.870Z,1014.33
2022-10-20T00:32:59.881Z,1014.31
2022-10-20T00:34:19.471Z,1014.29
2022-10-20T00:35:00.644Z,1014.29
2022-10-20T00:35:59.515Z,1014.30
2022-10-20T00:37:00.746Z,1014.29
2022-10-20T00:37:59.878Z,1014.30
2022-10-20T00:39:00.865Z,1014.32
2022-10-20T00:40:00.637Z,1014.28
2022-10-20T00:41:00.909Z,1014.25
2022-10-20T00:42:00.687Z,1014.22
2022-10-20T00:42:59.717Z,1014.21
2022-10-20T00:44:19.346Z,1014.14
2022-10-20T00:45:00.536Z,1014.12
2022-10-20T00:46:00.858Z,1014.09
2022-10-20T00:47:00.637Z,1014.11
2022-10-20T00:48:00.430Z,1014.13
2022-10-20T00:49:00.746Z,1014.14
2022-10-20T00:49:59.890Z,1014.20
2022-10-20T00:51:00.787Z,1014.23
2022-10-20T00:52:00.548Z,1014.20
2022-10-20T00:53:00.102Z,1014.18
2022-10-20T00:54:19.177Z,1014.22
2022-10-20T00:54:59.880Z,1014.24
2022-10-20T00:55:59.868Z,1014.26
2022-10-20T00:57:00.450Z,1014.26
2022-10-20T00:58:00.724Z,1014.22
2022-10-20T00:59:00.004Z,1014.19
2022-10-20T01:00:00.294Z,1014.19
2022-10-20T01:01:00.582Z,1014.07
2022-10-20T01:02:00.488Z,1014.05
2022-10-20T01:03:00.667Z,1014.06
2022-10-20T01:04:18.993Z,1013.97
2022-10-20T01:05:00.696Z,1013.92
2022-10-20T01:06:00.495Z,1013.88
2022-10-20T01:06:58.882Z,1013.86
2022-10-20T01:08:00.629Z,1013.77
2022-10-20T01:08:58.996Z,1013.76
2022-10-20T01:10:00.690Z,1013.76
2022-10-20T01:11:00.481Z,1013.75
2022-10-20T01:12:00.270Z,1013.70
2022-10-20T01:12:59.425Z,1013.74
2022-10-20T01:14:18.854Z,1013.74
2022-10-20T01:15:00.550Z,1013.71
2022-10-20T01:16:00.315Z,1013.72
2022-10-20T01:17:00.162Z,1013.66
2022-10-20T01:18:00.432Z,1013.67
2022-10-20T01:19:00.221Z,1013.57
2022-10-20T01:19:59.423Z,1013.55
2022-10-20T01:21:00.318Z,1013.54
2022-10-20T01:21:59.597Z,1013.60
2022-10-20T01:23:00.364Z,1013.54
2022-10-20T01:24:18.746Z,1013.51
2022-10-20T01:25:00.400Z,1013.51
2022-10-20T01:25:59.439Z,1013.44
2022-10-20T01:27:00.497Z,1013.46
2022-10-20T01:28:00.293Z,1013.37
2022-10-20T01:29:00.098Z,1013.42
2022-10-20T01:30:00.349Z,1013.40
2022-10-20T01:31:00.141Z,1013.39
2022-10-20T01:31:59.419Z,1013.43
2022-10-20T01:32:59.809Z,1013.43
2022-10-20T01:34:18.637Z,1013.50
2022-10-20T01:35:00.347Z,1013.50
2022-10-20T01:36:00.135Z,1013.55
2022-10-20T01:36:59.919Z,1013.59
2022-10-20T01:37:59.422Z,1013.63
2022-10-20T01:38:59.977Z,1013.58
2022-10-20T01:40:00.323Z,1013.59
2022-10-20T01:41:00.116Z,1013.56
2022-10-20T01:41:59.448Z,1013.50
2022-10-20T01:43:00.179Z,1013.52
2022-10-20T01:44:18.511Z,1013.51
2022-10-20T01:45:00.219Z,1013.52
2022-10-20T01:46:00.023Z,1013.51
2022-10-20T01:46:59.037Z,1013.48
2022-10-20T01:48:00.173Z,1013.47
2022-10-20T01:48:59.927Z,1013.50
2022-10-20T01:49:59.432Z,1013.49
2022-10-20T01:50:59.993Z,1013.46
2022-10-20T01:51:59.794Z,1013.45
2022-10-20T01:53:00.094Z,1013.47
2022-10-20T01:54:18.392Z,1013.45
2022-10-20T01:54:59.616Z,1013.45
2022-10-20T01:55:58.951Z,1013.46
2022-10-20T01:57:00.220Z,1013.50
2022-10-20T01:57:59.498Z,1013.51
2022-10-20T01:58:59.284Z,1013.53
2022-10-20T01:59:59.589Z,1013.46
2022-10-20T02:00:59.808Z,1013.44
2022-10-20T02:01:58.982Z,1013.45
2022-10-20T02:02:59.877Z,1013.41
2022-10-20T02:04:18.204Z,1013.37
2022-10-20T02:04:59.912Z,1013.41
2022-10-20T02:05:59.684Z,1013.39
2022-10-20T02:06:59.969Z,1013.36
2022-10-20T02:07:58.934Z,1013.35
2022-10-20T02:09:00.173Z,1013.38
2022-10-20T02:09:58.515Z,1013.40
2022-10-20T02:10:59.313Z,1013.37
2022-10-20T02:11:59.625Z,1013.36
2022-10-20T02:12:58.951Z,1013.33
2022-10-20T02:14:18.294Z,1013.28
2022-10-20T02:14:59.524Z,1013.30
2022-10-20T02:15:59.339Z,1013.18
2022-10-20T02:16:58.857Z,1013.21
2022-10-20T02:17:59.454Z,1013.12
2022-10-20T02:19:58.236Z,1013.11
2022-10-20T02:20:59.945Z,1013.10
2022-10-20T02:21:59.875Z,1013.02
2022-10-20T02:22:59.114Z,1013.06
2022-10-20T02:24:18.485Z,1012.98
2022-10-20T02:24:59.195Z,1012.94
2022-10-20T02:25:58.945Z,1012.91
2022-10-20T02:26:59.923Z,1012.85
2022-10-20T02:28:59.077Z,1012.81
2022-10-20T02:29:59.375Z,1012.81
2022-10-20T02:30:58.956Z,1012.76
2022-10-20T02:31:58.953Z,1012.73
2022-10-20T02:32:58.866Z,1012.69
2022-10-20T02:34:18.228Z,1012.68
2022-10-20T02:34:58.087Z,1012.68
2022-10-20T02:35:59.817Z,1012.67
2022-10-20T02:36:58.977Z,1012.65
2022-10-20T02:37:59.452Z,1012.61
2022-10-20T02:38:58.321Z,1012.61
2022-10-20T02:39:59.048Z,1012.55
2022-10-20T02:40:59.348Z,1012.56
2022-10-20T02:41:59.658Z,1012.56
2022-10-20T02:42:58.471Z,1012.56
2022-10-20T02:44:18.308Z,1012.52
2022-10-20T02:44:59.005Z,1012.47
2022-10-20T02:45:58.788Z,1012.45
2022-10-20T02:46:59.569Z,1012.42
2022-10-20T02:47:59.354Z,1012.41
2022-10-20T02:48:59.138Z,1012.39
2022-10-20T02:49:58.462Z,1012.43
2022-10-20T02:50:58.080Z,1012.38
2022-10-20T02:51:59.530Z,1012.42
2022-10-20T02:52:59.318Z,1012.40
2022-10-20T02:54:18.163Z,1012.37
2022-10-20T02:54:59.360Z,1012.38
2022-10-20T02:55:58.479Z,1012.33
2022-10-20T02:56:59.432Z,1012.35
2022-10-20T02:57:58.436Z,1012.30
2022-10-20T02:58:59.533Z,1012.25
2022-10-20T02:59:59.352Z,1012.26
2022-10-20T03:00:59.141Z,1012.25
2022-10-20T03:01:58.499Z,1012.15
2022-10-20T03:02:59.202Z,1012.11
2022-10-20T03:04:18.085Z,1012.09
2022-10-20T03:04:59.237Z,1012.05
2022-10-20T03:05:58.524Z,1012.04
2022-10-20T03:06:58.850Z,1012.02
2022-10-20T03:07:58.475Z,1012.04
2022-10-20T03:08:59.004Z,1012.04
2022-10-20T03:09:59.198Z,1012.07
2022-10-20T03:10:58.501Z,1012.10
2022-10-20T03:11:58.555Z,1012.06
2022-10-20T03:12:59.088Z,1012.03
2022-10-20T03:14:17.937Z,1012.06
2022-10-20T03:14:59.145Z,1012.06
2022-10-20T03:15:58.433Z,1012.05
2022-10-20T03:16:59.227Z,1012.07
2022-10-20T03:17:58.534Z,1012.03
2022-10-20T03:19:03.339Z,1012.01
2022-10-20T03:19:59.490Z,1012.02
2022-10-20T03:20:57.440Z,1012.04
2022-10-20T03:21:58.711Z,1011.99
2022-10-20T03:22:59.013Z,1011.91
2022-10-20T03:24:17.832Z,1011.88
2022-10-20T03:24:59.052Z,1011.93
2022-10-20T03:25:57.389Z,1011.89
2022-10-20T03:26:59.092Z,1011.94
2022-10-20T03:27:58.871Z,1011.88
2022-10-20T03:28:59.146Z,1011.91
2022-10-20T03:29:58.966Z,1011.88
2022-10-20T03:30:58.001Z,1011.83
2022-10-20T03:31:59.081Z,1011.79
2022-10-20T03:32:58.865Z,1011.76
2022-10-20T03:34:17.704Z,1011.77
2022-10-20T03:34:58.424Z,1011.73
2022-10-20T03:35:58.187Z,1011.71
2022-10-20T03:36:58.890Z,1011.79
2022-10-20T03:37:57.666Z,1011.80
2022-10-20T03:38:59.111Z,1011.85
2022-10-20T03:39:58.103Z,1011.79
2022-10-20T03:40:58.670Z,1011.81
2022-10-20T03:41:58.849Z,1011.83
2022-10-20T03:42:58.643Z,1011.79
2022-10-20T03:44:17.573Z,1011.75
2022-10-20T03:44:58.302Z,1011.73
2022-10-20T03:45:57.142Z,1011.70
2022-10-20T03:46:58.898Z,1011.59
2022-10-20T03:47:58.178Z,1011.61
2022-10-20T03:48:57.996Z,1011.56
2022-10-20T03:49:58.302Z,1011.58
2022-10-20T03:50:58.519Z,1011.62
2022-10-20T03:51:58.800Z,1011.63
2022-10-20T03:52:57.229Z,1011.71
2022-10-20T03:54:17.477Z,1011.70
2022-10-20T03:54:58.174Z,1011.64
2022-10-20T03:55:58.176Z,1011.68
2022-10-20T03:56:57.302Z,1011.66
2022-10-20T03:57:58.533Z,1011.66
2022-10-20T03:58:58.379Z,1011.66
2022-10-20T03:59:58.015Z,1011.65
2022-10-20T04:00:57.958Z,1011.63
2022-10-20T04:01:58.854Z,1011.70
2022-10-20T04:02:58.552Z,1011.68
2022-10-20T04:04:17.376Z,1011.71
2022-10-20T04:04:58.100Z,1011.66
2022-10-20T04:05:58.028Z,1011.68
2022-10-20T04:06:57.898Z,1011.69
2022-10-20T04:07:57.936Z,1011.69
2022-10-20T04:08:58.263Z,1011.67
2022-10-20T04:09:57.158Z,1011.65
2022-10-20T04:10:57.511Z,1011.71
2022-10-20T04:11:57.529Z,1011.66
2022-10-20T04:12:58.422Z,1011.65
2022-10-20T04:14:17.255Z,1011.59
2022-10-20T04:14:57.682Z,1011.62
2022-10-20T04:15:58.276Z,1011.60
2022-10-20T04:16:57.170Z,1011.58
2022-10-20T04:17:57.533Z,1011.57
2022-10-20T04:18:58.213Z,1011.58
2022-10-20T04:19:57.991Z,1011.47
2022-10-20T04:20:58.275Z,1011.42
2022-10-20T04:21:58.546Z,1011.37
2022-10-20T04:22:58.338Z,1011.27
2022-10-20T04:24:17.159Z,1011.26
2022-10-20T04:24:57.006Z,1011.27
2022-10-20T04:25:57.687Z,1011.24
2022-10-20T04:26:57.980Z,1011.26
2022-10-20T04:27:58.267Z,1011.20
2022-10-20T04:28:58.565Z,1011.22
2022-10-20T04:29:57.530Z,1011.25
2022-10-20T04:30:57.629Z,1011.30
2022-10-20T04:31:58.424Z,1011.26
2022-10-20T04:32:58.262Z,1011.29
2022-10-20T04:34:18.520Z,1011.28
2022-10-20T04:34:56.880Z,1011.26
2022-10-20T04:35:57.530Z,1011.25
2022-10-20T04:36:57.869Z,1011.32
2022-10-20T04:37:58.160Z,1011.30
2022-10-20T04:38:57.056Z,1011.23
2022-10-20T04:39:58.292Z,1011.20
2022-10-20T04:41:00.343Z,1011.14
2022-10-20T04:41:58.530Z,1011.11
2022-10-20T04:42:56.728Z,1011.08
2022-10-20T04:44:16.900Z,1011.06
2022-10-20T04:45:59.247Z,1011.01
2022-10-20T04:46:58.173Z,1010.99
2022-10-20T04:47:57.450Z,1010.98
2022-10-20T04:48:57.752Z,1011.04
2022-10-20T04:49:57.251Z,1011.02
2022-10-20T04:50:58.272Z,1011.02
2022-10-20T04:52:00.976Z,1011.03
2022-10-20T04:52:57.804Z,1011.03
2022-10-20T04:54:16.632Z,1011.01
2022-10-20T04:54:57.832Z,1010.96
2022-10-20T04:55:58.169Z,1010.96
2022-10-20T04:56:57.444Z,1010.98
2022-10-20T04:57:58.226Z,1011.08
2022-10-20T04:58:57.236Z,1011.08
2022-10-20T04:59:57.034Z,1011.10
2022-10-20T05:00:56.757Z,1011.09
2022-10-20T05:01:57.875Z,1011.06
2022-10-20T05:02:58.171Z,1011.08
2022-10-20T05:04:16.455Z,1011.05
2022-10-20T05:04:57.714Z,1011.08
2022-10-20T05:05:57.053Z,1011.04
2022-10-20T05:06:57.289Z,1011.02
2022-10-20T05:07:57.315Z,1010.93
2022-10-20T05:08:56.585Z,1010.79
2022-10-20T05:09:56.667Z,1010.69
2022-10-20T05:10:57.905Z,1010.64
2022-10-20T05:11:57.053Z,1010.63
2022-10-20T05:12:57.456Z,1010.62
2022-10-20T05:14:17.217Z,1010.60
2022-10-20T05:14:57.989Z,1010.63
2022-10-20T05:15:57.739Z,1010.65
2022-10-20T05:16:57.056Z,1010.68
2022-10-20T05:17:56.418Z,1010.67
2022-10-20T05:18:58.080Z,1010.76
2022-10-20T05:19:57.848Z,1010.83
2022-10-20T05:21:08.370Z,1010.85
2022-10-20T05:21:57.061Z,1010.82
2022-10-20T05:22:56.062Z,1010.85
2022-10-20T05:24:19.842Z,1010.89
2022-10-20T05:25:12.746Z,1010.93
2022-10-20T05:25:57.496Z,1010.94
2022-10-20T05:26:57.689Z,1010.98
2022-10-20T05:27:57.921Z,1010.94
2022-10-20T05:28:57.061Z,1010.92
2022-10-20T05:29:57.452Z,1010.96
2022-10-20T05:31:00.642Z,1010.97
2022-10-20T05:31:57.523Z,1010.95
2022-10-20T05:32:57.035Z,1010.94
2022-10-20T05:34:17.553Z,1010.83
2022-10-20T05:34:57.831Z,1010.79
2022-10-20T05:35:57.593Z,1010.71
2022-10-20T05:36:57.869Z,1010.77
2022-10-20T05:37:57.144Z,1010.79
2022-10-20T05:38:57.411Z,1010.82
2022-10-20T05:39:57.664Z,1010.88
2022-10-20T05:40:57.434Z,1010.87
2022-10-20T05:41:57.786Z,1010.85
2022-10-20T05:42:56.221Z,1010.87
2022-10-20T05:44:16.359Z,1010.89
2022-10-20T05:44:57.314Z,1010.91
2022-10-20T05:45:56.578Z,1010.88
2022-10-20T05:46:56.087Z,1010.85
2022-10-20T05:47:57.650Z,1010.80
2022-10-20T05:48:57.405Z,1010.79
2022-10-20T05:49:57.727Z,1010.77
2022-10-20T05:50:56.947Z,1010.75
2022-10-20T05:51:56.436Z,1010.78
2022-10-20T05:52:56.199Z,1010.76
2022-10-20T05:54:16.311Z,1010.78
2022-10-20T05:54:57.192Z,1010.82
2022-10-20T05:55:57.955Z,1010.79
2022-10-20T05:56:55.855Z,1010.80
2022-10-20T05:57:56.578Z,1010.76
2022-10-20T05:58:55.894Z,1010.70
2022-10-20T05:59:56.187Z,1010.70
2022-10-20T06:00:55.977Z,1010.68
2022-10-20T06:01:57.158Z,1010.67
2022-10-20T06:02:55.968Z,1010.68
2022-10-20T06:04:17.075Z,1010.71
2022-10-20T06:04:56.927Z,1010.67
2022-10-20T06:05:57.212Z,1010.65
2022-10-20T06:06:56.061Z,1010.61
2022-10-20T06:07:57.267Z,1010.64
2022-10-20T06:08:56.355Z,1010.69
2022-10-20T06:09:56.567Z,1010.77
2022-10-20T06:10:57.050Z,1010.82
2022-10-20T06:11:56.026Z,1010.84
2022-10-20T06:12:57.130Z,1010.85
2022-10-20T06:14:15.954Z,1010.93
2022-10-20T06:14:56.986Z,1010.94
2022-10-20T06:15:55.867Z,1010.92
2022-10-20T06:16:55.729Z,1010.97
2022-10-20T06:17:58.197Z,1010.99
2022-10-20T06:18:55.666Z,1011.00
2022-10-20T06:19:56.716Z,1010.95
2022-10-20T06:20:55.702Z,1010.92
2022-10-20T06:21:56.636Z,1010.86
2022-10-20T06:22:55.739Z,1010.83
2022-10-20T06:24:15.987Z,1010.83
2022-10-20T06:24:56.695Z,1010.80
2022-10-20T06:25:55.532Z,1010.76
2022-10-20T06:26:55.817Z,1010.79
2022-10-20T06:27:55.639Z,1010.77
2022-10-20T06:28:59.795Z,1010.71
2022-10-20T06:29:58.077Z,1010.64
2022-10-20T06:30:56.836Z,1010.65
2022-10-20T06:31:55.780Z,1010.66
2022-10-20T06:32:56.881Z,1010.70
2022-10-20T06:34:15.772Z,1010.67
2022-10-20T06:34:55.442Z,1010.71
2022-10-20T06:35:57.144Z,1010.73
2022-10-20T06:36:55.479Z,1010.68
2022-10-20T06:37:56.679Z,1010.71
2022-10-20T06:38:55.511Z,1010.68
2022-10-20T06:39:55.793Z,1010.71
2022-10-20T06:40:55.555Z,1010.68
2022-10-20T06:41:55.431Z,1010.66
2022-10-20T06:44:15.326Z,1010.61
2022-10-20T06:44:57.049Z,1010.62
2022-10-20T06:45:55.391Z,1010.59
2022-10-20T06:46:55.703Z,1010.59
2022-10-20T06:47:55.442Z,1010.59
2022-10-20T06:48:58.679Z,1010.55
2022-10-20T06:49:55.481Z,1010.50
2022-10-20T06:50:55.765Z,1010.57
2022-10-20T06:51:55.434Z,1010.56
2022-10-20T06:52:55.172Z,1010.46
2022-10-20T06:54:15.420Z,1010.45
2022-10-20T06:54:55.153Z,1010.43
2022-10-20T06:55:55.405Z,1010.40
2022-10-20T06:56:55.140Z,1010.37
2022-10-20T06:57:55.383Z,1010.40
2022-10-20T06:58:55.131Z,1010.43
2022-10-20T06:59:55.383Z,1010.48
2022-10-20T07:00:55.116Z,1010.45
2022-10-20T07:01:54.596Z,1010.45
2022-10-20T07:02:54.576Z,1010.44
2022-10-20T07:04:15.335Z,1010.47
2022-10-20T07:04:55.072Z,1010.54
2022-10-20T07:05:55.579Z,1010.60
2022-10-20T07:06:54.517Z,1010.61
2022-10-20T07:07:54.506Z,1010.64
2022-10-20T07:08:55.409Z,1010.67
2022-10-20T07:09:55.547Z,1010.65
2022-10-20T07:10:55.286Z,1010.59
2022-10-20T07:11:55.041Z,1010.63
2022-10-20T07:12:55.266Z,1010.63
2022-10-20T07:14:15.045Z,1010.66
2022-10-20T07:14:55.255Z,1010.62
2022-10-20T07:15:55.010Z,1010.67
2022-10-20T07:16:56.772Z,1010.66
2022-10-20T07:17:55.188Z,1010.68
2022-10-20T07:18:56.388Z,1010.65
2022-10-20T07:19:56.686Z,1010.57
2022-10-20T07:20:55.296Z,1010.53
2022-10-20T07:21:55.647Z,1010.53
2022-10-20T07:22:55.346Z,1010.50
2022-10-20T07:24:14.889Z,1010.55
2022-10-20T07:24:56.100Z,1010.49
2022-10-20T07:25:55.919Z,1010.56
2022-10-20T07:26:56.199Z,1010.56
2022-10-20T07:27:55.659Z,1010.56
2022-10-20T07:28:56.762Z,1010.62
2022-10-20T07:29:56.558Z,1010.65
2022-10-20T07:30:56.330Z,1010.63
2022-10-20T07:31:57.805Z,1010.61
2022-10-20T07:32:56.440Z,1010.61
2022-10-20T07:34:30.714Z,1010.67
2022-10-20T07:34:57.498Z,1010.64
2022-10-20T07:35:56.279Z,1010.61
2022-10-20T07:36:56.189Z,1010.60
2022-10-20T07:37:56.369Z,1010.60
2022-10-20T07:38:56.661Z,1010.62
2022-10-20T07:39:55.075Z,1010.61
2022-10-20T07:40:57.302Z,1010.65
2022-10-20T07:41:55.646Z,1010.62
2022-10-20T07:42:55.615Z,1010.62
2022-10-20T07:44:14.178Z,1010.63
2022-10-20T07:44:54.651Z,1010.69
2022-10-20T07:45:55.149Z,1010.62
2022-10-20T07:46:55.573Z,1010.61
2022-10-20T07:47:55.914Z,1010.58
2022-10-20T07:48:54.798Z,1010.62
2022-10-20T07:49:56.034Z,1010.62
2022-10-20T07:50:55.656Z,1010.67
2022-10-20T07:51:56.171Z,1010.62
2022-10-20T07:52:56.445Z,1010.62
2022-10-20T07:54:14.756Z,1010.67
2022-10-20T07:55:06.340Z,1010.67
2022-10-20T07:55:57.330Z,1010.67
2022-10-20T07:56:55.469Z,1010.64
2022-10-20T07:57:56.260Z,1010.64
2022-10-20T07:58:54.674Z,1010.66
2022-10-20T07:59:55.833Z,1010.65
2022-10-20T08:00:55.622Z,1010.59
2022-10-20T08:01:56.304Z,1010.54
2022-10-20T08:02:55.475Z,1010.54
2022-10-20T08:04:14.629Z,1010.59
2022-10-20T08:04:56.370Z,1010.62
2022-10-20T08:05:54.759Z,1010.61
2022-10-20T08:06:55.907Z,1010.65
2022-10-20T08:07:55.182Z,1010.66
2022-10-20T08:08:56.053Z,1010.71
2022-10-20T08:09:56.299Z,1010.66
2022-10-20T08:10:55.617Z,1010.61
2022-10-20T08:11:56.134Z,1010.65
2022-10-20T08:12:54.837Z,1010.65
2022-10-20T08:14:14.570Z,1010.61
2022-10-20T08:14:59.164Z,1010.58
2022-10-20T08:16:04.465Z,1010.48
2022-10-20T08:16:57.253Z,1010.52
2022-10-20T08:17:56.639Z,1010.46
2022-10-20T08:20:03.174Z,1010.48
2022-10-20T08:20:55.570Z,1010.50
2022-10-20T08:21:54.435Z,1010.47
2022-10-20T08:22:56.180Z,1010.47
2022-10-20T08:24:14.507Z,1010.48
2022-10-20T08:24:55.704Z,1010.45
2022-10-20T08:25:55.184Z,1010.42
2022-10-20T08:26:55.843Z,1010.52
2022-10-20T08:27:56.150Z,1010.56
2022-10-20T08:28:55.913Z,1010.57
2022-10-20T08:30:06.171Z,1010.58
2022-10-20T08:30:56.195Z,1010.63
2022-10-20T08:31:55.784Z,1010.66
2022-10-20T08:32:56.076Z,1010.58
2022-10-20T08:34:14.408Z,1010.61
2022-10-20T08:34:54.233Z,1010.54
2022-10-20T08:35:55.437Z,1010.49
2022-10-20T08:36:54.279Z,1010.52
2022-10-20T08:37:56.003Z,1010.52
2022-10-20T08:38:55.837Z,1010.55
2022-10-20T08:39:55.621Z,1010.59
2022-10-20T08:40:55.917Z,1010.59
2022-10-20T08:42:08.087Z,1010.56
2022-10-20T08:42:56.188Z,1010.57
2022-10-20T08:44:14.618Z,1010.57
2022-10-20T08:44:55.538Z,1010.53
2022-10-20T08:45:55.074Z,1010.45
2022-10-20T08:46:55.607Z,1010.46
2022-10-20T08:47:55.900Z,1010.42
2022-10-20T08:48:54.289Z,1010.41
2022-10-20T08:49:54.336Z,1010.39
2022-10-20T08:50:55.888Z,1010.35
2022-10-20T08:51:55.691Z,1010.33
2022-10-20T08:52:54.936Z,1010.35
2022-10-20T08:54:14.255Z,1010.31
2022-10-20T08:54:55.460Z,1010.28
2022-10-20T08:55:54.963Z,1010.25
2022-10-20T08:56:54.119Z,1010.27
2022-10-20T08:57:55.853Z,1010.29
2022-10-20T08:58:55.641Z,1010.25
2022-10-20T08:59:54.700Z,1010.25
2022-10-20T09:00:54.290Z,1010.34
2022-10-20T09:01:55.049Z,1010.37
2022-10-20T09:02:55.760Z,1010.32
2022-10-20T09:04:14.085Z,1010.37
2022-10-20T09:04:54.176Z,1010.37
2022-10-20T09:05:54.713Z,1010.27
2022-10-20T09:06:54.085Z,1010.33
2022-10-20T09:07:54.796Z,1010.38
2022-10-20T09:08:55.657Z,1010.30
2022-10-20T09:09:55.370Z,1010.37
2022-10-20T09:10:54.279Z,1010.34
2022-10-20T09:11:54.688Z,1010.36
2022-10-20T09:12:55.270Z,1010.36
2022-10-20T09:14:14.088Z,1010.36
2022-10-20T09:14:55.298Z,1010.36
2022-10-20T09:15:55.574Z,1010.36
2022-10-20T09:17:00.190Z,1010.35
2022-10-20T09:17:55.697Z,1010.37
2022-10-20T09:18:54.927Z,1010.23
2022-10-20T09:19:55.219Z,1010.23
2022-10-20T09:20:54.771Z,1010.16
2022-10-20T09:21:54.861Z,1010.18
2022-10-20T09:22:55.194Z,1010.28
2022-10-20T09:24:13.939Z,1010.34
2022-10-20T09:24:55.185Z,1010.40
2022-10-20T09:25:55.470Z,1010.39
2022-10-20T09:26:59.235Z,1010.42
2022-10-20T09:27:56.094Z,1010.42
2022-10-20T09:29:12.151Z,1010.41
2022-10-20T09:29:54.770Z,1010.41
2022-10-20T09:30:54.940Z,1010.39
2022-10-20T09:31:55.213Z,1010.38
2022-10-20T09:32:55.006Z,1010.39
2022-10-20T09:34:13.829Z,1010.42
2022-10-20T09:34:55.046Z,1010.38
2022-10-20T09:35:54.221Z,1010.40
2022-10-20T09:36:53.944Z,1010.37
2022-10-20T09:37:54.969Z,1010.45
2022-10-20T09:38:55.243Z,1010.40
2022-10-20T09:39:55.802Z,1010.43
2022-10-20T09:40:53.940Z,1010.37
2022-10-20T09:41:55.165Z,1010.34
2022-10-20T09:42:54.912Z,1010.29
2022-10-20T09:44:13.734Z,1010.34
2022-10-20T09:44:54.942Z,1010.35
2022-10-20T09:45:55.206Z,1010.29
2022-10-20T09:46:55.047Z,1010.35
2022-10-20T09:47:54.504Z,1010.30
2022-10-20T09:48:53.658Z,1010.33
2022-10-20T09:49:59.898Z,1010.38
2022-10-20T09:50:54.720Z,1010.41
2022-10-20T09:51:53.785Z,1010.36
2022-10-20T09:52:54.228Z,1010.32
2022-10-20T09:54:13.568Z,1010.32
2022-10-20T09:54:54.817Z,1010.30
2022-10-20T09:55:54.329Z,1010.26
2022-10-20T09:56:54.871Z,1010.31
2022-10-20T09:57:54.228Z,1010.29
2022-10-20T09:58:54.225Z,1010.27
2022-10-20T09:59:54.749Z,1010.31
2022-10-20T10:00:55.105Z,1010.28
2022-10-20T10:01:53.450Z,1010.30
2022-10-20T10:02:53.720Z,1010.33
2022-10-20T10:04:13.453Z,1010.38
2022-10-20T10:04:53.250Z,1010.37
2022-10-20T10:05:54.947Z,1010.43
2022-10-20T10:06:54.730Z,1010.39
2022-10-20T10:07:55.086Z,1010.33
2022-10-20T10:08:54.122Z,1010.40
2022-10-20T10:09:54.231Z,1010.38
2022-10-20T10:10:53.557Z,1010.26
2022-10-20T10:11:53.340Z,1010.23
2022-10-20T10:12:55.035Z,1010.16
2022-10-20T10:14:13.332Z,1010.15
2022-10-20T10:14:53.631Z,1010.14
2022-10-20T10:15:54.241Z,1010.20
2022-10-20T10:16:54.700Z,1010.19
2022-10-20T10:17:54.991Z,1010.14
2022-10-20T10:18:53.410Z,1010.08
2022-10-20T10:19:55.614Z,1010.08
2022-10-20T10:20:53.773Z,1010.10
2022-10-20T10:21:53.756Z,1010.07
2022-10-20T10:22:53.580Z,1010.05
2022-10-20T10:24:13.324Z,1010.08
2022-10-20T10:24:53.114Z,1010.10
2022-10-20T10:25:57.895Z,1010.08
2022-10-20T10:26:54.755Z,1010.06
2022-10-20T10:27:54.909Z,1010.03
2022-10-20T10:28:54.709Z,1010.01
2022-10-20T10:29:53.719Z,1010.00
2022-10-20T10:30:54.839Z,1009.98
2022-10-20T10:31:54.610Z,1009.95
2022-10-20T10:32:53.764Z,1009.96
2022-10-20T10:34:13.213Z,1010.04
2022-10-20T10:34:52.997Z,1010.06
2022-10-20T10:35:54.202Z,1010.07
2022-10-20T10:36:54.487Z,1010.11
2022-10-20T10:37:54.762Z,1010.12
2022-10-20T10:38:53.198Z,1010.13
2022-10-20T10:39:54.384Z,1010.12
2022-10-20T10:40:54.703Z,1010.16
2022-10-20T10:41:54.583Z,1010.19
2022-10-20T10:42:54.341Z,1010.15
2022-10-20T10:44:13.165Z,1010.21
2022-10-20T10:44:53.603Z,1010.21
2022-10-20T10:45:54.766Z,1010.27
2022-10-20T10:46:54.036Z,1010.28
2022-10-20T10:47:54.336Z,1010.27
2022-10-20T10:48:54.121Z,1010.21
2022-10-20T10:49:54.421Z,1010.20
2022-10-20T10:50:54.707Z,1010.18
2022-10-20T10:51:53.067Z,1010.16
2022-10-20T10:52:54.279Z,1010.08
2022-10-20T10:54:13.108Z,1010.04
2022-10-20T10:54:53.090Z,1010.04
2022-10-20T10:55:53.777Z,1010.01
2022-10-20T10:56:54.555Z,1009.94
2022-10-20T10:57:54.335Z,1009.88
2022-10-20T10:58:53.844Z,1009.91
2022-10-20T10:59:54.405Z,1009.86
2022-10-20T11:00:53.755Z,1009.91
2022-10-20T11:01:53.771Z,1009.88
2022-10-20T11:02:54.271Z,1009.82
2022-10-20T11:04:13.076Z,1009.78
2022-10-20T11:04:54.269Z,1009.79
2022-10-20T11:05:54.062Z,1009.81
2022-10-20T11:06:55.690Z,1009.79
2022-10-20T11:07:52.738Z,1009.77
2022-10-20T11:08:53.045Z,1009.71
2022-10-20T11:09:52.936Z,1009.68
2022-10-20T11:10:53.978Z,1009.76
2022-10-20T11:11:54.249Z,1009.78
2022-10-20T11:12:53.287Z,1009.73
2022-10-20T11:14:12.908Z,1009.77
2022-10-20T11:14:54.076Z,1009.73
2022-10-20T11:15:53.883Z,1009.71
2022-10-20T11:16:53.676Z,1009.73
2022-10-20T11:17:53.999Z,1009.71
2022-10-20T11:18:53.289Z,1009.65
2022-10-20T11:19:53.576Z,1009.64
2022-10-20T11:20:52.944Z,1009.63
2022-10-20T11:21:54.184Z,1009.58
2022-10-20T11:22:53.930Z,1009.55
2022-10-20T11:24:12.749Z,1009.51
2022-10-20T11:24:53.932Z,1009.48
2022-10-20T11:25:53.693Z,1009.50
2022-10-20T11:26:54.115Z,1009.54
2022-10-20T11:27:52.500Z,1009.50
2022-10-20T11:28:53.690Z,1009.45
2022-10-20T11:29:53.328Z,1009.43
2022-10-20T11:30:54.269Z,1009.44
2022-10-20T11:31:53.284Z,1009.39
2022-10-20T11:32:53.850Z,1009.44
2022-10-20T11:34:12.665Z,1009.30
2022-10-20T11:34:53.882Z,1009.29
2022-10-20T11:35:53.315Z,1009.24
2022-10-20T11:36:53.974Z,1009.23
2022-10-20T11:37:53.739Z,1009.28
2022-10-20T11:38:54.029Z,1009.22
2022-10-20T11:39:53.797Z,1009.22
2022-10-20T11:40:52.733Z,1009.23
2022-10-20T11:41:53.304Z,1009.21
2022-10-20T11:42:52.330Z,1009.21
2022-10-20T11:44:12.570Z,1009.28
2022-10-20T11:44:53.270Z,1009.20
2022-10-20T11:45:53.556Z,1009.17
2022-10-20T11:46:53.910Z,1009.16
2022-10-20T11:47:52.256Z,1009.22
2022-10-20T11:48:53.973Z,1009.22
2022-10-20T11:49:53.732Z,1009.15
2022-10-20T11:50:54.088Z,1009.12
2022-10-20T11:51:53.360Z,1009.09
2022-10-20T11:52:52.810Z,1009.11
2022-10-20T11:54:13.169Z,1009.15
2022-10-20T11:54:52.952Z,1009.13
2022-10-20T11:55:53.395Z,1009.19
2022-10-20T11:56:53.853Z,1009.21
2022-10-20T11:57:56.402Z,1009.15
2022-10-20T11:58:54.917Z,1009.11
2022-10-20T11:59:52.816Z,1009.10
2022-10-20T12:00:55.200Z,1009.11
2022-10-20T12:01:51.687Z,1009.09
2022-10-20T12:02:53.727Z,1009.03
2022-10-20T12:04:12.054Z,1009.02
2022-10-20T12:04:53.264Z,1009.06
2022-10-20T12:05:53.542Z,1009.04
2022-10-20T12:06:53.831Z,1009.10
2022-10-20T12:08:00.806Z,1009.07
2022-10-20T12:08:54.934Z,1009.07
2022-10-20T12:09:53.705Z,1009.09